createdAt,value
2018-07-14T08:33:17.593Z,23.98
2018-07-14T08:34:20.827Z,24.13
2018-07-14T08:35:24.029Z,24.29
2018-07-14T14:27:17.418Z,24.82
2018-07-14T14:28:20.170Z,24.91
2018-07-14T14:29:22.690Z,25.05
2018-07-14T14:30:25.163Z,25.17
2018-07-14T16:33:06.657Z,24.83
2018-07-14T16:34:10.178Z,24.96
2018-07-14T16:35:15.815Z,25.08
2018-07-14T16:36:18.325Z,25.19
2018-07-14T16:37:21.131Z,25.31
2018-07-14T16:38:24.525Z,25.41
2018-07-14T16:39:27.263Z,25.49
2018-07-14T16:40:29.918Z,25.53
2018-07-14T16:41:32.538Z,25.55
2018-07-14T16:42:35.197Z,25.59
2018-07-14T16:43:38.381Z,24.94
2018-07-14T16:44:41.276Z,25.65
2018-07-14T16:45:44.291Z,25.65
2018-07-14T16:46:47.792Z,25.67
2018-07-14T16:47:51.113Z,25.69
2018-07-14T16:48:53.650Z,25.69
2018-07-14T16:49:56.327Z,25.70
2018-07-14T16:50:59.326Z,25.69
2018-07-14T16:52:01.843Z,25.71
2018-07-14T16:53:04.402Z,25.69
2018-07-14T16:54:06.885Z,25.70
2018-07-14T16:55:09.389Z,25.72
2018-07-14T16:56:13.539Z,25.72
2018-07-14T16:57:16.387Z,25.72
2018-07-14T16:58:18.992Z,25.74
2018-07-14T16:59:21.572Z,25.76
2018-07-14T17:00:27.670Z,25.78
2018-07-14T17:01:30.370Z,25.76
2018-07-14T17:02:33.054Z,25.77
2018-07-14T17:03:36.162Z,25.76
2018-07-14T17:04:39.769Z,25.77
2018-07-14T17:05:44.321Z,25.80
2018-07-14T17:06:47.615Z,25.82
2018-07-14T17:07:50.946Z,25.53
2018-07-14T17:08:53.511Z,25.82
2018-07-14T17:09:56.523Z,25.84
2018-07-14T17:10:59.051Z,25.85
2018-07-14T17:12:01.790Z,25.87
2018-07-14T17:13:04.500Z,25.86
2018-07-14T17:14:07.029Z,25.86
2018-07-14T17:15:09.951Z,25.85
2018-07-14T17:16:13.767Z,25.85
2018-07-14T17:17:16.806Z,25.87
2018-07-14T17:18:19.337Z,25.88
2018-07-14T17:19:26.139Z,25.90
2018-07-14T17:20:28.694Z,25.86
2018-07-14T17:21:31.927Z,25.86
2018-07-14T17:22:34.973Z,25.86
2018-07-14T17:23:37.537Z,25.84
2018-07-14T17:24:40.125Z,25.83
2018-07-14T17:25:45.013Z,25.84
2018-07-14T17:26:47.795Z,25.86
2018-07-14T17:27:50.778Z,25.87
2018-07-14T17:28:53.370Z,25.87
2018-07-14T17:29:55.968Z,25.85
2018-07-14T17:30:58.484Z,25.83
2018-07-14T17:32:01.021Z,25.86
2018-07-14T17:33:03.629Z,25.89
2018-07-14T17:34:09.206Z,25.89
2018-07-14T17:35:11.908Z,25.89
2018-07-14T17:36:14.429Z,25.88
2018-07-14T17:37:17.250Z,25.87
2018-07-14T17:38:19.998Z,25.87
2018-07-14T17:39:22.688Z,25.43
2018-07-14T17:40:25.789Z,25.17
2018-07-14T17:41:28.425Z,25.89
2018-07-14T17:42:30.968Z,25.23
2018-07-14T17:43:33.783Z,25.89
2018-07-14T17:44:37.230Z,25.88
2018-07-14T17:45:40.455Z,25.86
2018-07-14T17:46:45.720Z,25.90
2018-07-14T17:47:48.300Z,25.87
2018-07-14T17:48:51.042Z,25.23
2018-07-14T17:49:53.865Z,25.91
2018-07-14T17:50:57.375Z,25.91
2018-07-14T17:52:00.523Z,25.91
2018-07-14T17:53:04.448Z,25.89
2018-07-14T17:54:07.270Z,25.90
2018-07-14T17:55:11.696Z,25.91
2018-07-14T17:56:15.318Z,25.93
2018-07-14T17:57:17.939Z,25.93
2018-07-14T17:58:20.861Z,25.94
2018-07-14T17:59:24.461Z,25.95
2018-07-14T18:00:27.138Z,25.94
2018-07-14T18:01:31.366Z,25.97
2018-07-14T18:02:36.704Z,25.96
2018-07-14T18:03:39.288Z,26.05
2018-07-14T18:04:42.135Z,26.01
2018-07-14T18:05:46.560Z,25.99
2018-07-14T18:06:49.553Z,25.96
2018-07-14T18:07:53.319Z,25.92
2018-07-14T18:08:56.479Z,25.95
2018-07-14T18:09:59.515Z,25.94
2018-07-14T19:21:51.513Z,25.01
2018-07-14T19:22:55.405Z,25.12
2018-07-14T19:24:01.509Z,25.26
2018-07-14T19:39:39.353Z,25.04
2018-07-14T19:40:43.527Z,25.11
2018-07-14T19:41:48.523Z,25.25
2018-07-14T19:42:52.502Z,25.42
2018-07-14T19:44:00.446Z,25.58
2018-07-14T19:45:04.968Z,25.28
2018-07-14T19:46:08.651Z,25.68
2018-07-14T19:47:14.389Z,25.72
2018-07-14T19:48:20.130Z,25.76
2018-07-14T19:49:25.334Z,25.74
2018-07-14T19:50:35.764Z,25.78
2018-07-14T19:51:39.867Z,25.78
2018-07-14T19:52:48.858Z,25.76
2018-07-14T19:53:54.066Z,25.79
2018-07-14T19:54:58.089Z,25.77
2018-07-14T19:56:02.255Z,25.79
2018-07-14T19:57:07.801Z,25.77
2018-07-14T19:58:12.024Z,25.40
2018-07-14T19:59:15.325Z,25.78
2018-07-14T20:00:18.824Z,25.76
2018-07-14T20:02:46.122Z,25.82
2018-07-14T20:03:49.387Z,25.83
2018-07-14T20:04:54.780Z,25.77
2018-07-14T20:05:59.531Z,25.78
2018-07-14T20:07:03.884Z,25.81
2018-07-14T20:08:07.485Z,25.83
2018-07-14T20:09:14.523Z,25.82
2018-07-14T20:10:18.342Z,25.78
2018-07-14T20:11:22.396Z,25.78
2018-07-14T20:12:27.631Z,25.75
2018-07-14T20:13:31.742Z,25.76
2018-07-14T20:14:37.215Z,25.81
2018-07-14T20:15:41.378Z,25.91
2018-07-14T20:16:46.896Z,25.83
2018-07-14T23:49:03.348Z,24.72
2018-07-14T23:50:07.213Z,24.97
2018-07-14T23:51:09.752Z,24.76
2018-07-14T23:52:12.241Z,25.25
2018-07-14T23:53:14.750Z,25.34
2018-07-14T23:54:18.225Z,25.39
2018-07-14T23:55:20.692Z,25.45
2018-07-14T23:56:23.458Z,25.12
2018-07-14T23:57:26.031Z,25.51
2018-07-14T23:58:28.515Z,25.11
2018-07-14T23:59:31.002Z,25.48
